createdAt,value
2023-07-07T00:00:36.560Z,11.89
2023-07-07T00:02:36.577Z,12.11
2023-07-07T00:04:36.617Z,11.94
2023-07-07T00:05:36.534Z,12.28
2023-07-07T00:06:36.572Z,11.94
2023-07-07T00:08:36.537Z,11.94
2023-07-07T00:09:36.547Z,11.83
2023-07-07T00:11:36.560Z,12.11
2023-07-07T00:13:36.605Z,12.28
2023-07-07T00:15:36.549Z,12.28
2023-07-07T00:16:36.554Z,12.28
2023-07-07T00:17:36.594Z,12.28
2023-07-07T00:19:36.535Z,12.28
2023-07-07T00:21:36.558Z,12.28
2023-07-07T00:22:36.559Z,12.28
2023-07-07T00:24:36.587Z,11.83
2023-07-07T00:26:36.542Z,11.72
2023-07-07T00:27:36.533Z,11.61
2023-07-07T00:28:36.533Z,11.83
2023-07-07T00:29:36.549Z,11.83
2023-07-07T00:30:36.566Z,11.61
2023-07-07T00:31:36.550Z,11.83
2023-07-07T00:32:36.545Z,11.83
2023-07-07T00:33:36.538Z,11.83
2023-07-07T00:34:36.541Z,11.89
2023-07-07T00:35:36.571Z,11.61
2023-07-07T00:36:36.556Z,11.72
2023-07-07T00:38:36.573Z,11.83
2023-07-07T00:39:36.535Z,11.72
2023-07-07T00:40:36.586Z,11.83
2023-07-07T00:41:36.573Z,11.83
2023-07-07T00:43:36.544Z,11.83
2023-07-07T00:44:36.550Z,11.83
2023-07-07T00:45:36.541Z,11.83
2023-07-07T00:46:36.618Z,12.11
2023-07-07T00:47:36.600Z,12.11
2023-07-07T00:48:36.570Z,11.83
2023-07-07T00:49:36.539Z,11.83
2023-07-07T00:50:36.550Z,11.72
2023-07-07T00:51:36.573Z,11.83
2023-07-07T00:52:36.541Z,11.83
2023-07-07T00:53:36.559Z,11.83
2023-07-07T00:54:36.567Z,11.83
2023-07-07T00:55:36.540Z,11.61
2023-07-07T00:56:36.579Z,11.83
2023-07-07T00:57:36.547Z,11.44
2023-07-07T00:58:36.543Z,11.83
2023-07-07T00:59:36.546Z,11.72
2023-07-07T01:01:36.689Z,11.83
2023-07-07T01:02:36.580Z,11.83
2023-07-07T01:04:36.594Z,11.72
2023-07-07T01:05:36.572Z,11.83
2023-07-07T01:06:36.572Z,11.44
2023-07-07T01:07:36.561Z,11.94
2023-07-07T01:08:36.559Z,11.94
2023-07-07T01:09:36.560Z,12.11
2023-07-07T01:10:36.630Z,11.83
2023-07-07T01:12:36.554Z,12.28
2023-07-07T01:14:36.544Z,12.28
2023-07-07T01:15:36.546Z,12.28
2023-07-07T01:17:36.581Z,12.28
2023-07-07T01:19:36.549Z,12.11
2023-07-07T01:21:36.552Z,12.28
2023-07-07T01:22:36.559Z,12.28
2023-07-07T01:23:36.576Z,12.11
2023-07-07T01:25:36.558Z,12.28
2023-07-07T01:26:36.585Z,11.83
2023-07-07T01:27:36.544Z,11.83
2023-07-07T01:28:36.553Z,11.83
2023-07-07T01:30:36.557Z,11.44
2023-07-07T01:31:36.646Z,11.83
2023-07-07T01:33:36.542Z,11.83
2023-07-07T01:34:36.577Z,11.94
2023-07-07T01:35:36.547Z,12.11
2023-07-07T01:36:36.555Z,11.83
2023-07-07T01:37:36.572Z,11.72
2023-07-07T01:38:36.553Z,11.83
2023-07-07T01:39:36.554Z,11.83
2023-07-07T01:40:36.568Z,11.83
2023-07-07T01:42:36.567Z,11.72
2023-07-07T01:43:36.547Z,11.83
2023-07-07T01:44:36.555Z,11.83
2023-07-07T01:45:36.555Z,11.72
2023-07-07T01:46:36.647Z,11.44
2023-07-07T01:47:36.601Z,11.83
2023-07-07T01:49:36.548Z,11.72
2023-07-07T01:50:36.560Z,11.28
2023-07-07T01:52:36.565Z,11.83
2023-07-07T01:54:36.553Z,11.83
2023-07-07T01:55:36.545Z,11.72
2023-07-07T01:56:36.550Z,11.83
2023-07-07T01:58:36.572Z,11.83
2023-07-07T02:00:36.550Z,12.11
2023-07-07T02:02:36.583Z,11.94
2023-07-07T02:03:36.548Z,11.94
2023-07-07T02:04:36.613Z,12.11
2023-07-07T02:06:36.556Z,11.94
2023-07-07T02:08:36.577Z,11.94
2023-07-07T02:09:36.551Z,11.94
2023-07-07T02:10:36.576Z,12.11
2023-07-07T02:11:36.547Z,12.11
2023-07-07T02:12:36.559Z,11.94
2023-07-07T02:13:36.587Z,11.94
2023-07-07T02:14:36.576Z,11.94
2023-07-07T02:15:36.541Z,11.83
2023-07-07T02:16:36.555Z,11.83
2023-07-07T02:17:36.605Z,12.28
2023-07-07T02:18:36.578Z,12.11
2023-07-07T02:19:36.568Z,12.11
2023-07-07T02:21:36.566Z,12.28
2023-07-07T02:23:36.552Z,12.11
2023-07-07T02:24:36.552Z,12.11
2023-07-07T02:25:36.549Z,12.28
2023-07-07T02:26:36.569Z,12.28
2023-07-07T02:27:36.547Z,12.11
2023-07-07T02:28:36.578Z,12.28
2023-07-07T02:30:36.638Z,12.28
2023-07-07T02:32:36.589Z,12.28
2023-07-07T02:34:36.582Z,12.28
2023-07-07T02:36:36.557Z,12.11
2023-07-07T02:37:36.579Z,12.28
2023-07-07T02:38:36.559Z,12.28
2023-07-07T02:39:36.553Z,12.28
2023-07-07T02:40:36.549Z,12.11
2023-07-07T02:41:36.559Z,12.28
2023-07-07T02:43:36.584Z,12.28
2023-07-07T02:44:36.564Z,12.28
2023-07-07T02:45:36.598Z,12.11
2023-07-07T02:46:36.599Z,12.28
2023-07-07T02:48:36.563Z,12.44
2023-07-07T02:49:36.574Z,12.44
2023-07-07T02:51:36.557Z,12.28
2023-07-07T02:52:36.552Z,12.28
2023-07-07T02:54:36.562Z,12.11
2023-07-07T02:55:36.563Z,11.94
2023-07-07T02:57:36.553Z,12.28
2023-07-07T02:58:36.552Z,12.11
2023-07-07T02:59:36.553Z,12.28
2023-07-07T03:01:36.598Z,12.28
2023-07-07T03:02:36.649Z,11.94
2023-07-07T03:03:36.576Z,12.11
2023-07-07T03:04:36.557Z,11.94
2023-07-07T03:05:36.561Z,11.94
2023-07-07T03:06:36.555Z,11.94
2023-07-07T03:07:36.554Z,11.83
2023-07-07T03:08:36.556Z,11.61
2023-07-07T03:09:36.555Z,11.83
2023-07-07T03:10:36.563Z,11.83
2023-07-07T03:11:36.568Z,11.94
2023-07-07T03:13:36.560Z,11.94
2023-07-07T03:15:36.554Z,11.94
2023-07-07T03:16:36.699Z,11.72
2023-07-07T03:18:36.597Z,11.83
2023-07-07T03:20:36.560Z,12.11
2023-07-07T03:21:36.567Z,11.83
2023-07-07T03:22:36.576Z,12.11
2023-07-07T03:23:36.563Z,11.83
2023-07-07T03:24:36.590Z,11.94
2023-07-07T03:25:36.560Z,11.94
2023-07-07T03:26:36.569Z,12.11
2023-07-07T03:28:36.569Z,11.83
2023-07-07T03:29:36.570Z,12.11
2023-07-07T03:31:36.623Z,11.94
2023-07-07T03:32:36.647Z,11.83
2023-07-07T03:34:36.608Z,11.94
2023-07-07T03:36:36.562Z,11.94
2023-07-07T03:38:36.553Z,11.83
2023-07-07T03:39:36.566Z,11.83
2023-07-07T03:41:36.567Z,12.11
2023-07-07T03:42:36.563Z,12.11
2023-07-07T03:43:36.588Z,12.28
2023-07-07T03:45:36.560Z,12.11
2023-07-07T03:46:36.580Z,11.83
2023-07-07T03:47:36.584Z,12.11
2023-07-07T03:48:36.574Z,12.11
2023-07-07T03:50:36.608Z,12.11
2023-07-07T03:51:36.593Z,12.28
2023-07-07T03:52:36.589Z,12.28
2023-07-07T03:53:36.555Z,12.11
2023-07-07T03:54:36.579Z,12.11
2023-07-07T03:55:36.567Z,12.28
2023-07-07T03:56:36.577Z,12.11
2023-07-07T03:57:36.579Z,12.28
2023-07-07T03:58:36.575Z,12.11
2023-07-07T04:00:36.587Z,12.28
2023-07-07T04:01:36.570Z,12.11
2023-07-07T04:03:36.689Z,12.28
2023-07-07T04:04:36.807Z,12.28
2023-07-07T04:05:36.559Z,12.11
2023-07-07T04:06:36.592Z,12.11
2023-07-07T04:07:36.578Z,12.28
2023-07-07T04:08:36.577Z,12.28
2023-07-07T04:09:36.593Z,12.28
2023-07-07T04:11:36.579Z,12.28
2023-07-07T04:13:36.644Z,12.28
2023-07-07T04:14:36.589Z,12.11
2023-07-07T04:16:36.712Z,12.28
2023-07-07T04:17:36.600Z,12.11
2023-07-07T04:18:36.587Z,12.28
2023-07-07T04:19:36.559Z,12.28
2023-07-07T04:20:36.579Z,12.28
2023-07-07T04:22:36.618Z,12.44
2023-07-07T04:24:36.573Z,12.28
2023-07-07T04:25:36.566Z,12.44
2023-07-07T04:26:36.560Z,12.11
2023-07-07T04:27:36.579Z,12.28
2023-07-07T04:29:36.567Z,12.28
2023-07-07T04:30:36.580Z,12.28
2023-07-07T04:32:36.587Z,12.28
2023-07-07T04:33:36.611Z,12.28
2023-07-07T04:34:36.554Z,12.28
2023-07-07T04:35:36.559Z,12.11
2023-07-07T04:37:36.566Z,12.28
2023-07-07T04:38:36.588Z,12.44
2023-07-07T04:40:36.559Z,12.28
2023-07-07T04:41:36.577Z,12.72
2023-07-07T04:42:36.576Z,12.28
2023-07-07T04:43:36.554Z,12.44
2023-07-07T04:44:36.592Z,12.56
2023-07-07T04:46:36.757Z,12.56
2023-07-07T04:48:36.572Z,12.56
2023-07-07T04:49:36.551Z,12.56
2023-07-07T04:50:36.574Z,12.72
2023-07-07T04:51:36.553Z,12.72
2023-07-07T04:52:36.557Z,12.72
2023-07-07T04:53:36.577Z,12.56
2023-07-07T04:54:36.606Z,12.56
2023-07-07T04:55:36.560Z,12.56
2023-07-07T04:56:36.578Z,12.56
2023-07-07T04:57:36.583Z,12.72
2023-07-07T04:58:36.567Z,12.72
2023-07-07T04:59:36.563Z,12.72
2023-07-07T05:00:36.565Z,12.89
2023-07-07T05:01:36.604Z,12.56
2023-07-07T05:02:36.724Z,12.72
2023-07-07T05:03:36.633Z,12.72
2023-07-07T05:04:36.572Z,12.72
2023-07-07T05:05:36.562Z,12.72
2023-07-07T05:06:36.581Z,12.72
2023-07-07T05:07:36.564Z,12.72
2023-07-07T05:08:36.580Z,12.72
2023-07-07T05:09:36.565Z,12.72
2023-07-07T05:10:36.612Z,12.89
2023-07-07T05:12:36.580Z,12.72
2023-07-07T05:13:36.652Z,12.72
2023-07-07T05:14:36.581Z,12.28
2023-07-07T05:15:36.561Z,12.72
2023-07-07T05:16:36.666Z,12.72
2023-07-07T05:17:36.611Z,12.72
2023-07-07T05:18:36.568Z,12.72
2023-07-07T05:19:36.579Z,12.72
2023-07-07T05:20:36.580Z,12.89
2023-07-07T05:21:36.575Z,12.89
2023-07-07T05:22:36.581Z,12.72
2023-07-07T05:23:36.582Z,12.89
2023-07-07T05:24:36.574Z,13.06
2023-07-07T05:25:36.591Z,12.89
2023-07-07T05:26:36.603Z,13.06
2023-07-07T05:28:36.579Z,13.06
2023-07-07T05:30:36.593Z,13.06
2023-07-07T05:31:36.616Z,13.17
2023-07-07T05:32:36.607Z,13.17
2023-07-07T05:33:36.569Z,13.17
2023-07-07T05:34:36.579Z,13.17
2023-07-07T05:35:36.584Z,13.17
2023-07-07T05:36:36.588Z,13.17
2023-07-07T05:38:36.585Z,13.33
2023-07-07T05:40:36.580Z,13.33
2023-07-07T05:41:36.609Z,13.67
2023-07-07T05:42:36.611Z,13.67
2023-07-07T05:44:36.610Z,13.67
2023-07-07T05:46:36.680Z,13.67
2023-07-07T05:47:36.596Z,13.78
2023-07-07T05:48:36.602Z,13.67
2023-07-07T05:49:36.586Z,13.94
2023-07-07T05:51:36.593Z,13.67
2023-07-07T05:52:36.602Z,14.06
2023-07-07T05:54:36.582Z,14.06
2023-07-07T05:55:36.576Z,14.28
2023-07-07T05:56:36.577Z,14.28
2023-07-07T05:57:36.586Z,14.06
2023-07-07T05:58:36.626Z,14.39
2023-07-07T06:00:36.627Z,14.67
2023-07-07T06:01:36.653Z,15
2023-07-07T06:03:36.604Z,15.39
2023-07-07T06:04:36.598Z,15.22
2023-07-07T06:06:36.589Z,15.39
2023-07-07T06:07:36.586Z,15.39
2023-07-07T06:08:36.592Z,15.22
2023-07-07T06:09:36.601Z,15
2023-07-07T06:11:36.604Z,15.39
2023-07-07T06:12:36.588Z,15.22
2023-07-07T06:13:36.641Z,16.39
2023-07-07T06:14:36.616Z,16.83
2023-07-07T06:16:36.709Z,16.83
2023-07-07T06:17:36.645Z,16.83
2023-07-07T06:18:36.588Z,16.83
2023-07-07T06:19:36.606Z,16.83
2023-07-07T06:20:36.610Z,15.89
2023-07-07T06:21:36.588Z,15.89
2023-07-07T06:22:36.596Z,15.89
2023-07-07T06:23:36.605Z,16.06
2023-07-07T06:25:36.606Z,17.28
2023-07-07T06:26:36.598Z,17.28
2023-07-07T06:27:36.601Z,18.11
2023-07-07T06:28:36.593Z,19.06
2023-07-07T06:30:36.642Z,20.72
2023-07-07T06:32:36.636Z,21.89
2023-07-07T06:34:36.600Z,20.83
2023-07-07T06:35:36.599Z,19.39
2023-07-07T06:37:36.613Z,19.72
2023-07-07T06:38:36.601Z,18.78
2023-07-07T06:41:36.607Z,16.5
2023-07-07T06:42:36.605Z,16.39
2023-07-07T06:44:36.598Z,16.67
2023-07-07T06:46:36.669Z,17.28
2023-07-07T06:48:36.618Z,17.28
2023-07-07T06:49:36.599Z,17.17
2023-07-07T06:50:36.623Z,17
2023-07-07T06:52:36.608Z,17.39
2023-07-07T06:53:36.607Z,17.44
2023-07-07T06:54:36.619Z,17.78
2023-07-07T06:55:36.628Z,18.28
2023-07-07T06:56:36.606Z,18.28
2023-07-07T06:57:36.630Z,18.89
2023-07-07T06:58:36.660Z,18.78
2023-07-07T06:59:36.604Z,19.06
2023-07-07T07:00:36.618Z,18.78
2023-07-07T07:02:36.675Z,18.78
2023-07-07T07:03:36.678Z,18.83
2023-07-07T07:04:36.612Z,18.89
2023-07-07T07:05:36.613Z,19.56
2023-07-07T07:06:36.599Z,19.94
2023-07-07T07:07:36.606Z,19.28
2023-07-07T07:09:36.606Z,20.22
2023-07-07T07:11:36.613Z,22.22
2023-07-07T07:12:36.610Z,22.78
2023-07-07T07:13:36.619Z,23.67
2023-07-07T07:14:36.613Z,23.83
2023-07-07T07:15:36.614Z,23.28
2023-07-07T07:17:36.820Z,23.11
2023-07-07T07:18:36.675Z,24
2023-07-07T07:20:36.629Z,23.83
2023-07-07T07:21:36.611Z,24.39
2023-07-07T07:22:36.691Z,24.56
2023-07-07T07:23:36.782Z,24
2023-07-07T07:24:36.628Z,23.83
2023-07-07T07:26:36.615Z,22.83
2023-07-07T07:27:36.604Z,22.39
2023-07-07T07:28:36.624Z,22.5
2023-07-07T07:29:36.627Z,22.33
2023-07-07T07:30:36.747Z,21.89
2023-07-07T07:31:36.689Z,22.06
2023-07-07T07:32:36.785Z,22.78
2023-07-07T07:33:36.611Z,22.39
2023-07-07T07:34:37.330Z,23.11
2023-07-07T07:36:36.613Z,23.94
2023-07-07T07:37:36.613Z,24.28
2023-07-07T07:38:36.629Z,24
2023-07-07T07:39:36.638Z,22.78
2023-07-07T07:40:36.632Z,23.28
2023-07-07T07:41:36.612Z,22.06
2023-07-07T07:42:36.644Z,22.22
2023-07-07T07:44:36.610Z,23.44
2023-07-07T07:45:36.669Z,22.56
2023-07-07T07:46:36.630Z,21.89
2023-07-07T07:47:36.732Z,22.39
2023-07-07T07:49:36.641Z,21
2023-07-07T07:50:36.704Z,21.39
2023-07-07T07:52:36.620Z,22.22
2023-07-07T07:53:36.611Z,22.94
2023-07-07T07:54:36.639Z,22.94
2023-07-07T07:56:36.627Z,22.06
2023-07-07T07:57:36.620Z,22.39
2023-07-07T07:58:36.617Z,22.39
2023-07-07T07:59:36.617Z,22.06
2023-07-07T08:00:36.632Z,22.06
2023-07-07T08:01:36.646Z,21.39
2023-07-07T08:02:36.649Z,20.83
2023-07-07T08:04:36.627Z,21.39
2023-07-07T08:06:36.660Z,19.94
2023-07-07T08:07:36.620Z,18.94
2023-07-07T08:08:36.620Z,20.33
2023-07-07T08:09:36.625Z,20.33
2023-07-07T08:10:36.675Z,20.33
2023-07-07T08:11:36.628Z,20.33
2023-07-07T08:12:36.638Z,20.56
2023-07-07T08:14:36.668Z,20.83
2023-07-07T08:16:36.665Z,20.33
2023-07-07T08:18:36.625Z,20.33
2023-07-07T08:19:36.661Z,20.11
2023-07-07T08:21:36.637Z,19.94
2023-07-07T08:22:36.655Z,19.94
2023-07-07T08:23:36.625Z,20.33
2023-07-07T08:24:36.631Z,20.22
2023-07-07T08:25:36.665Z,19.94
2023-07-07T08:27:38.837Z,20.83
2023-07-07T08:28:36.660Z,20.83
2023-07-07T08:29:36.621Z,20.83
2023-07-07T08:30:36.666Z,20.11
2023-07-07T08:32:36.641Z,18.28
2023-07-07T08:33:37.109Z,18.17
2023-07-07T08:34:47.885Z,18.61
2023-07-07T08:35:36.642Z,18.94
2023-07-07T08:36:36.626Z,19.44
2023-07-07T08:38:36.660Z,20.22
2023-07-07T08:40:36.653Z,21.39
2023-07-07T08:42:36.621Z,21.39
2023-07-07T08:43:36.626Z,20.83
2023-07-07T08:44:36.651Z,19.94
2023-07-07T08:45:36.661Z,19.06
2023-07-07T08:47:36.694Z,18.94
2023-07-07T08:49:36.666Z,18.94
2023-07-07T08:50:36.638Z,18.61
2023-07-07T08:51:36.630Z,19.44
2023-07-07T08:53:36.633Z,20.33
2023-07-07T08:54:39.869Z,21.22
2023-07-07T08:56:36.625Z,22.06
2023-07-07T08:58:36.636Z,21.72
2023-07-07T08:59:36.652Z,21.72
2023-07-07T09:00:36.632Z,22.06
2023-07-07T09:01:36.659Z,22.39
2023-07-07T09:03:36.637Z,22.22
2023-07-07T09:04:36.743Z,21.39
2023-07-07T09:05:36.650Z,21
2023-07-07T09:07:36.628Z,21.22
2023-07-07T09:09:36.639Z,21.89
2023-07-07T09:10:36.689Z,22.78
2023-07-07T09:11:36.624Z,22.78
2023-07-07T09:12:36.678Z,23.11
2023-07-07T09:13:36.639Z,22.94
2023-07-07T09:14:36.634Z,22.94
2023-07-07T09:15:36.652Z,22.94
2023-07-07T09:16:36.653Z,22.06
2023-07-07T09:17:36.691Z,21.39
2023-07-07T09:19:36.648Z,21.72
2023-07-07T09:20:36.687Z,21.39
2023-07-07T09:21:36.631Z,21.56
2023-07-07T09:22:36.640Z,21.06
2023-07-07T09:23:36.632Z,21.56
2023-07-07T09:24:36.642Z,22.06
2023-07-07T09:25:48.871Z,22.06
2023-07-07T09:26:36.657Z,21.72
2023-07-07T09:28:36.647Z,21.56
2023-07-07T09:29:36.644Z,21.22
2023-07-07T09:31:36.665Z,21.06
2023-07-07T09:32:36.668Z,21.56
2023-07-07T09:33:36.640Z,21.56
2023-07-07T09:35:36.676Z,21.56
2023-07-07T09:37:36.652Z,22.06
2023-07-07T09:38:36.636Z,23.11
2023-07-07T09:39:36.644Z,23.83
2023-07-07T09:40:36.681Z,24.17
2023-07-07T09:42:36.666Z,24.17
2023-07-07T09:43:45.474Z,23.67
2023-07-07T09:44:36.632Z,24.17
2023-07-07T09:45:36.672Z,23.28
2023-07-07T09:46:36.671Z,23.11
2023-07-07T09:47:36.648Z,23.11
2023-07-07T09:48:36.668Z,23.11
2023-07-07T09:49:36.649Z,23.11
2023-07-07T09:50:36.682Z,23.44
2023-07-07T09:51:36.647Z,23.44
2023-07-07T09:53:46.700Z,23.83
2023-07-07T09:54:36.663Z,23.83
2023-07-07T09:56:36.646Z,23.11
2023-07-07T09:58:36.685Z,23.28
2023-07-07T10:00:44.925Z,22.94
2023-07-07T10:01:36.718Z,23.11
2023-07-07T10:03:36.678Z,23.28
2023-07-07T10:04:36.716Z,23.11
2023-07-07T10:05:36.671Z,22.61
2023-07-07T10:06:36.652Z,22.61
2023-07-07T10:07:36.673Z,23.44
2023-07-07T10:08:36.647Z,24.17
2023-07-07T10:09:36.677Z,24.89
2023-07-07T10:11:54.715Z,23.67
2023-07-07T10:13:36.749Z,23.28
2023-07-07T10:14:36.697Z,23.28
2023-07-07T10:16:36.671Z,24.17
2023-07-07T10:19:36.678Z,23.44
2023-07-07T10:20:36.685Z,23.67
2023-07-07T10:21:36.676Z,23.11
2023-07-07T10:22:36.652Z,22.61
2023-07-07T10:23:36.664Z,22.06
2023-07-07T10:24:36.669Z,22.39
2023-07-07T10:25:36.678Z,22.22
2023-07-07T10:27:36.657Z,23.11
2023-07-07T10:29:36.656Z,23.83
2023-07-07T10:30:36.711Z,23.67
2023-07-07T10:31:36.706Z,24.17
2023-07-07T10:32:36.671Z,24.17
2023-07-07T10:33:36.664Z,24
2023-07-07T10:34:36.662Z,23.67
2023-07-07T10:36:36.657Z,22.94
2023-07-07T10:37:36.666Z,22.61
2023-07-07T10:38:42.058Z,23.11
2023-07-07T10:39:36.677Z,23.28
2023-07-07T10:40:36.654Z,23.28
2023-07-07T10:41:36.658Z,23.67
2023-07-07T10:42:36.676Z,23.44
2023-07-07T10:44:36.691Z,23.67
2023-07-07T10:46:36.799Z,23.28
2023-07-07T10:48:36.667Z,23.28
2023-07-07T10:49:36.669Z,23.83
2023-07-07T10:50:36.704Z,23.78
2023-07-07T10:53:36.664Z,24.33
2023-07-07T10:54:36.803Z,24.5
2023-07-07T10:55:36.677Z,24.33
2023-07-07T10:56:36.653Z,24.33
2023-07-07T10:58:36.677Z,25.44
2023-07-07T11:01:36.684Z,25.44
2023-07-07T11:02:36.698Z,25.44
2023-07-07T11:04:36.700Z,26.56
2023-07-07T11:05:37.833Z,25.61
2023-07-07T11:06:38.003Z,26.56
2023-07-07T11:07:36.660Z,26.33
2023-07-07T11:08:36.679Z,25.44
2023-07-07T11:09:36.666Z,25.44
2023-07-07T11:11:36.664Z,25.06
2023-07-07T11:12:36.753Z,25.44
2023-07-07T11:13:36.689Z,25.44
2023-07-07T11:15:36.674Z,25.44
2023-07-07T11:16:36.703Z,25.44
2023-07-07T11:17:36.709Z,25.44
2023-07-07T11:19:36.659Z,25.78
2023-07-07T11:20:36.702Z,26.56
2023-07-07T11:21:36.652Z,26.17
2023-07-07T11:22:36.657Z,26.17
2023-07-07T11:23:36.694Z,26.56
2023-07-07T11:24:55.974Z,27.39
2023-07-07T11:25:36.689Z,26.94
2023-07-07T11:26:36.666Z,26.89
2023-07-07T11:28:36.670Z,27.5
2023-07-07T11:30:36.660Z,27.17
2023-07-07T11:33:36.679Z,27.72
2023-07-07T11:34:36.688Z,26.94
2023-07-07T11:36:36.675Z,26.94
2023-07-07T11:37:36.679Z,25.44
2023-07-07T11:38:36.678Z,25.22
2023-07-07T11:39:36.665Z,24.67
2023-07-07T11:40:36.672Z,25.06
2023-07-07T11:41:36.679Z,25.06
2023-07-07T11:42:36.668Z,25.61
2023-07-07T11:43:36.659Z,25.44
2023-07-07T11:44:36.691Z,25.61
2023-07-07T11:45:36.675Z,25.44
2023-07-07T11:46:36.690Z,25.44
2023-07-07T11:47:36.741Z,25.61
2023-07-07T11:48:36.681Z,26.33
2023-07-07T11:49:36.664Z,26.56
2023-07-07T11:50:36.711Z,26.94
2023-07-07T11:52:36.685Z,26.56
2023-07-07T11:53:36.702Z,26.56
2023-07-07T11:54:36.682Z,26
2023-07-07T11:55:36.709Z,26
2023-07-07T11:56:36.671Z,26
2023-07-07T11:57:37.536Z,26.89
2023-07-07T11:58:36.684Z,26.56
2023-07-07T12:00:36.702Z,26.94
2023-07-07T12:01:36.676Z,28.72
2023-07-07T12:02:36.696Z,29.17
2023-07-07T12:03:37.039Z,26.72
2023-07-07T12:04:37.130Z,26.72
2023-07-07T12:05:37.005Z,26
2023-07-07T12:06:36.706Z,24.89
2023-07-07T12:07:36.664Z,25.22
2023-07-07T12:08:36.708Z,26.56
2023-07-07T12:10:36.701Z,26.94
2023-07-07T12:12:36.686Z,27
2023-07-07T12:13:36.714Z,26.72
2023-07-07T12:15:36.691Z,27.5
2023-07-07T12:16:36.715Z,29.33
2023-07-07T12:17:36.682Z,29.72
2023-07-07T12:18:36.677Z,28.56
2023-07-07T12:19:36.679Z,27.72
2023-07-07T12:20:36.695Z,27.5
2023-07-07T12:21:36.681Z,27.39
2023-07-07T12:22:36.722Z,27.72
2023-07-07T12:24:36.679Z,30.11
2023-07-07T12:25:36.700Z,29.89
2023-07-07T12:27:36.685Z,30.11
2023-07-07T12:28:36.688Z,29.72
2023-07-07T12:29:36.673Z,27.94
2023-07-07T12:30:36.694Z,28.89
2023-07-07T12:32:36.730Z,27.17
2023-07-07T12:33:36.679Z,26.83
2023-07-07T12:34:36.682Z,26.83
2023-07-07T12:35:36.692Z,27.72
2023-07-07T12:36:36.674Z,28.33
2023-07-07T12:37:36.686Z,28.89
2023-07-07T12:38:37.468Z,30.11
2023-07-07T12:40:36.709Z,28.56
2023-07-07T12:41:36.714Z,28.33
2023-07-07T12:43:36.721Z,28.67
2023-07-07T12:44:36.688Z,28.33
2023-07-07T12:45:36.741Z,27.72
2023-07-07T12:46:36.729Z,27.94
2023-07-07T12:47:36.724Z,28.11
2023-07-07T12:48:36.701Z,28.33
2023-07-07T12:49:36.690Z,27.17
2023-07-07T12:50:36.719Z,26.56
2023-07-07T12:51:36.675Z,26.17
2023-07-07T12:52:36.690Z,27.17
2023-07-07T12:54:36.730Z,27.39
2023-07-07T12:56:36.687Z,27.94
2023-07-07T12:58:36.680Z,28.67
2023-07-07T12:59:36.711Z,28.67
2023-07-07T13:00:36.720Z,28.33
2023-07-07T13:01:36.945Z,28.67
2023-07-07T13:02:36.722Z,28.89
2023-07-07T13:03:36.757Z,28.56
2023-07-07T13:04:36.699Z,27.17
2023-07-07T13:05:36.710Z,27.5
2023-07-07T13:06:36.699Z,27.39
2023-07-07T13:08:36.683Z,28.33
2023-07-07T13:09:36.699Z,28.56
2023-07-07T13:10:36.738Z,28.11
2023-07-07T13:11:36.720Z,28.33
2023-07-07T13:12:36.690Z,27.94
2023-07-07T13:14:36.705Z,27.5
2023-07-07T13:15:36.703Z,27.17
2023-07-07T13:16:36.863Z,26.17
2023-07-07T13:17:36.751Z,26.17
2023-07-07T13:18:36.697Z,26.17
2023-07-07T13:19:36.701Z,26.94
2023-07-07T13:20:36.686Z,27.17
2023-07-07T13:21:36.695Z,27.39
2023-07-07T13:22:36.680Z,27.17
2023-07-07T13:23:36.701Z,26.94
2023-07-07T13:24:36.698Z,26.72
2023-07-07T13:25:36.718Z,26.33
2023-07-07T13:26:36.733Z,26.72
2023-07-07T13:28:36.691Z,26.94
2023-07-07T13:30:36.718Z,26.94
2023-07-07T13:31:36.728Z,27.17
2023-07-07T13:33:36.704Z,26.72
2023-07-07T13:35:36.700Z,27.17
2023-07-07T13:37:36.704Z,27.72
2023-07-07T13:38:36.710Z,28.33
2023-07-07T13:40:36.700Z,29.5
2023-07-07T13:41:36.690Z,29.5
2023-07-07T13:42:36.725Z,29.72
2023-07-07T13:44:36.705Z,29.56
2023-07-07T13:45:36.702Z,29.28
2023-07-07T13:47:36.846Z,27.94
2023-07-07T13:48:36.870Z,27.94
2023-07-07T13:50:36.689Z,28.67
2023-07-07T13:51:36.695Z,29.67
2023-07-07T13:52:36.695Z,29.67
2023-07-07T13:53:36.730Z,28.5
2023-07-07T13:55:36.698Z,28.67
2023-07-07T13:56:36.718Z,27.72
2023-07-07T13:57:36.690Z,26.83
2023-07-07T13:58:36.762Z,26.83
2023-07-07T14:00:36.707Z,27.33
2023-07-07T14:01:36.728Z,27.44
2023-07-07T14:02:36.738Z,27.72
2023-07-07T14:03:36.724Z,28.5
2023-07-07T14:04:36.715Z,28.06
2023-07-07T14:05:36.723Z,28.28
2023-07-07T14:06:36.700Z,28.5
2023-07-07T14:08:36.714Z,30.28
2023-07-07T14:09:36.689Z,30.06
2023-07-07T14:10:39.313Z,29.44
2023-07-07T14:11:36.710Z,30.28
2023-07-07T14:12:36.692Z,29.67
2023-07-07T14:13:36.759Z,30.67
2023-07-07T14:14:36.792Z,31.5
2023-07-07T14:16:36.789Z,32.78
2023-07-07T14:18:36.706Z,32.11
2023-07-07T14:20:36.765Z,32.33
2023-07-07T14:22:36.701Z,30.44
2023-07-07T14:23:36.700Z,30.44
2023-07-07T14:25:36.699Z,28.06
2023-07-07T14:26:36.703Z,28.28
2023-07-07T14:28:36.707Z,28.83
2023-07-07T14:29:36.711Z,28.83
2023-07-07T14:30:36.744Z,30.28
2023-07-07T14:32:36.737Z,30.28
2023-07-07T14:33:36.694Z,30.83
2023-07-07T14:34:36.699Z,31.5
2023-07-07T14:36:36.710Z,29.67
2023-07-07T14:37:36.703Z,28.28
2023-07-07T14:38:36.690Z,28.06
2023-07-07T14:39:36.707Z,28.5
2023-07-07T14:40:36.700Z,28.28
2023-07-07T14:41:36.743Z,28.5
2023-07-07T14:42:36.704Z,29.22
2023-07-07T14:44:36.701Z,28.5
2023-07-07T14:45:36.697Z,28.06
2023-07-07T14:46:36.809Z,29.06
2023-07-07T14:48:36.698Z,28.83
2023-07-07T14:49:36.700Z,28.28
2023-07-07T14:50:36.719Z,29.44
2023-07-07T14:51:36.710Z,28.28
2023-07-07T14:53:36.698Z,29.67
2023-07-07T14:54:36.714Z,29.83
2023-07-07T14:56:36.705Z,30.28
2023-07-07T14:57:36.708Z,29.44
2023-07-07T14:58:36.721Z,29.83
2023-07-07T14:59:36.727Z,30.06
2023-07-07T15:00:36.738Z,29.67
2023-07-07T15:01:36.744Z,29.22
2023-07-07T15:02:36.790Z,29.67
2023-07-07T15:04:36.723Z,30.83
2023-07-07T15:05:36.716Z,32.11
2023-07-07T15:06:36.716Z,32.78
2023-07-07T15:07:36.703Z,31.5
2023-07-07T15:08:36.720Z,30.83
2023-07-07T15:09:36.708Z,30.67
2023-07-07T15:10:36.758Z,29.67
2023-07-07T15:11:36.721Z,29.83
2023-07-07T15:12:36.710Z,30.44
2023-07-07T15:13:36.717Z,30.83
2023-07-07T15:14:36.722Z,31.06
2023-07-07T15:16:36.828Z,30.06
2023-07-07T15:17:36.741Z,30.83
2023-07-07T15:18:36.735Z,31.5
2023-07-07T15:19:36.714Z,30.83
2023-07-07T15:20:36.713Z,29.67
2023-07-07T15:21:36.725Z,29.67
2023-07-07T15:22:36.717Z,28.83
2023-07-07T15:24:36.717Z,30.28
2023-07-07T15:25:36.718Z,30.83
2023-07-07T15:27:36.720Z,31.06
2023-07-07T15:28:36.747Z,31.89
2023-07-07T15:29:36.718Z,31.5
2023-07-07T15:30:36.742Z,30.67
2023-07-07T15:32:36.733Z,32.11
2023-07-07T15:33:36.740Z,32.56
2023-07-07T15:34:36.773Z,32.78
2023-07-07T15:36:36.718Z,33.39
2023-07-07T15:37:36.739Z,33.22
2023-07-07T15:38:36.708Z,33.61
2023-07-07T15:39:36.728Z,33.22
2023-07-07T15:41:36.735Z,34.72
2023-07-07T15:43:36.714Z,35.5
2023-07-07T15:44:36.720Z,33.39
2023-07-07T15:45:41.636Z,32.11
2023-07-07T15:46:39.669Z,32.33
2023-07-07T15:47:36.768Z,32.78
2023-07-07T15:48:36.739Z,32.78
2023-07-07T15:50:36.737Z,31.5
2023-07-07T15:52:36.721Z,30.28
2023-07-07T15:54:36.730Z,31.5
2023-07-07T15:55:36.721Z,32.11
2023-07-07T15:57:36.719Z,30.83
2023-07-07T15:58:36.733Z,30.83
2023-07-07T16:00:36.780Z,32.33
2023-07-07T16:01:36.722Z,31.67
2023-07-07T16:03:36.857Z,31.06
2023-07-07T16:04:36.725Z,31.67
2023-07-07T16:05:36.770Z,31.5
2023-07-07T16:06:36.800Z,31.89
2023-07-07T16:07:36.711Z,31.67
2023-07-07T16:08:36.759Z,31.28
2023-07-07T16:09:36.726Z,30.83
2023-07-07T16:11:36.733Z,31.28
2023-07-07T16:12:36.708Z,30.83
2023-07-07T16:13:36.738Z,31.28
2023-07-07T16:15:36.760Z,30.83
2023-07-07T16:16:36.763Z,31.5
2023-07-07T16:17:36.760Z,32.33
2023-07-07T16:18:36.732Z,32.11
2023-07-07T16:20:36.741Z,32.78
2023-07-07T16:21:36.714Z,31.67
2023-07-07T16:22:36.758Z,31.28
2023-07-07T16:23:36.712Z,32.33
2023-07-07T16:24:36.724Z,32.78
2023-07-07T16:25:36.716Z,32.56
2023-07-07T16:26:36.709Z,32.78
2023-07-07T16:27:36.736Z,32.11
2023-07-07T16:28:36.730Z,32.11
2023-07-07T16:30:36.727Z,31.5